Main page
METAR-TAF:

METAR-TAF

Airports :

Ouagadougou Airport

Ouagadougou, Burkina Faso

latitude: 12-21N, longitude: 001-31W, elevation: 316 m

Current weather observation

The report was made 28 minutes ago, at 01:00 UTC
Wind 4 kt from the West, varying between Southwest and North
Temperature 34°C
Humidity 34%
Pressure 1009 hPa
Visibility 10 km or more
no clouds below 1500 m and no cumulonimbus

METAR: DFFD 130100Z 28004KT 220V350 CAVOK 34/16 Q1009 NOSIG

Time: 01:28 (01:28 UTC)

Forecast

The report was made 2 hours and 28 minutes ago, at 23:00 UTC
Forecast valid from 13 at 00 UTC to 14 at 06 UTC
Wind 8 kt from variable directions
Visibility 10 km or more
no clouds below 1500 m and no cumulonimbus
Probability 30% :
Temporary
from 13 at 14 UTC to 13 at 22 UTC
Few clouds at a height of 2600 ft
Few clouds at a height of 4000 ft, Cumulonimbus.
thunderstorm,

TAF: DFFD 122300Z 1300/1406 VRB08KT CAVOK PROB30 TEMPO 1314/1322 TS FEW026 FEW040CB

Weather observations and forecasts of more than 4000 airports (METAR and TAF reports).

The available stations are represented by yellow and red dots on the map.

Hover mouse over dot to see the name of the station.

Then click to see weather observations and forecasts.

To change the map : click on the green buttons with a black cross to zoom in, on the green button with a dash to zoom out, or on the green arrows for adjacent maps.


METAR-TAF: